createdAt,value
2023-05-16T00:02:09.960Z,13.59
2023-05-16T00:04:38.168Z,13.58
2023-05-16T00:07:06.599Z,13.42
2023-05-16T00:09:34.571Z,13.43
2023-05-16T00:12:04.731Z,13.45
2023-05-16T00:14:33.199Z,13.47
2023-05-16T00:17:01.400Z,13.55
2023-05-16T00:19:30.170Z,13.71
2023-05-16T00:21:58.153Z,13.58
2023-05-16T00:24:26.135Z,13.59
2023-05-16T00:26:54.021Z,13.59
2023-05-16T00:29:24.487Z,13.61
2023-05-16T00:31:52.529Z,13.54
2023-05-16T00:34:21.440Z,13.39
2023-05-16T00:36:49.438Z,13.41
2023-05-16T00:39:17.806Z,13.26
2023-05-16T00:41:45.920Z,13.31
2023-05-16T00:44:13.869Z,13.30
2023-05-16T00:46:43.259Z,13.27
2023-05-16T00:49:11.878Z,13.28
2023-05-16T00:51:40.899Z,13.17
2023-05-16T00:54:08.880Z,13.36
2023-05-16T00:56:37.090Z,13.10
2023-05-16T00:59:05.372Z,13.32
2023-05-16T01:01:34.561Z,13.02
2023-05-16T01:04:05.150Z,13.14
2023-05-16T01:06:34.338Z,13.28
2023-05-16T01:09:02.528Z,13.20
2023-05-16T01:11:36.893Z,13.39
2023-05-16T01:14:13.445Z,13.27
2023-05-16T01:16:50.180Z,13.20
2023-05-16T01:19:34.449Z,13.18
2023-05-16T01:22:07.961Z,13.24
2023-05-16T01:24:45.021Z,13.03
2023-05-16T01:27:15.857Z,13.01
2023-05-16T01:29:43.809Z,13.10
2023-05-16T01:32:11.687Z,13.30
2023-05-16T01:34:39.568Z,13.32
2023-05-16T01:37:17.415Z,13.27
2023-05-16T01:39:52.319Z,13.25
2023-05-16T01:42:25.883Z,13.22
2023-05-16T01:45:02.031Z,13.27
2023-05-16T01:47:33.330Z,13.10
2023-05-16T01:50:11.457Z,12.95
2023-05-16T01:52:46.221Z,13.09
2023-05-16T01:55:22.038Z,13.15
2023-05-16T01:57:53.121Z,13.15
2023-05-16T02:00:22.206Z,12.57
2023-05-16T02:02:50.207Z,12.58
2023-05-16T02:05:18.179Z,12.72
2023-05-16T02:07:46.410Z,12.92
2023-05-16T02:10:14.926Z,12.87
2023-05-16T02:12:42.960Z,12.91
2023-05-16T02:15:14.602Z,12.94
2023-05-16T02:17:42.784Z,12.99
2023-05-16T02:20:11.980Z,13.06
2023-05-16T02:22:40.368Z,13.09
2023-05-16T02:25:09.400Z,13.09
2023-05-16T02:27:37.376Z,13.01
2023-05-16T02:30:06.038Z,12.83
2023-05-16T02:32:35.430Z,12.42
2023-05-16T02:35:04.415Z,12.29
2023-05-16T02:37:32.345Z,12.29
2023-05-16T02:40:00.244Z,12.17
2023-05-16T02:42:29.345Z,12.30
2023-05-16T02:44:57.294Z,12.20
2023-05-16T02:47:25.251Z,12.14
2023-05-16T02:49:54.558Z,12.17
2023-05-16T02:52:22.626Z,12.07
2023-05-16T02:55:09.446Z,12.17
2023-05-16T02:57:38.383Z,12.36
2023-05-16T03:00:07.642Z,12.37
2023-05-16T03:02:35.597Z,12.42
2023-05-16T03:05:06.325Z,12.17
2023-05-16T03:07:34.350Z,12.00
2023-05-16T03:10:02.347Z,12.26
2023-05-16T03:12:30.228Z,12.32
2023-05-16T03:14:58.211Z,12.23
2023-05-16T03:17:26.175Z,12.29
2023-05-16T03:19:54.762Z,12.33
2023-05-16T03:22:24.037Z,12.31
2023-05-16T03:24:51.985Z,12.52
2023-05-16T03:27:19.921Z,12.18
2023-05-16T03:29:47.777Z,12.14
2023-05-16T03:32:15.834Z,12.30
2023-05-16T03:34:43.681Z,12.32
2023-05-16T03:37:11.844Z,12.08
2023-05-16T03:39:41.065Z,11.92
2023-05-16T03:42:08.988Z,11.88
2023-05-16T03:44:36.821Z,12.13
2023-05-16T03:47:05.380Z,12.22
2023-05-16T03:49:33.258Z,12.40
2023-05-16T03:52:01.153Z,12.39
2023-05-16T03:54:28.994Z,12.58
2023-05-16T03:56:58.329Z,12.72
2023-05-16T03:59:26.161Z,12.76
2023-05-16T04:01:54.076Z,12.70
2023-05-16T04:04:21.958Z,12.75
2023-05-16T04:06:49.840Z,12.64
2023-05-16T04:09:17.722Z,12.70
2023-05-16T04:11:45.910Z,12.71
2023-05-16T04:14:15.573Z,12.69
2023-05-16T04:16:43.654Z,12.66
2023-05-16T04:19:11.723Z,12.57
2023-05-16T04:21:39.660Z,12.65
2023-05-16T04:24:08.903Z,12.70
2023-05-16T04:26:37.397Z,12.73
2023-05-16T04:29:06.119Z,12.91
2023-05-16T04:31:35.477Z,13.01
2023-05-16T04:34:03.577Z,13.23
2023-05-16T04:36:31.634Z,13.31
2023-05-16T04:38:59.530Z,13.24
2023-05-16T04:41:27.433Z,13.34
2023-05-16T04:43:55.495Z,13.42
2023-05-16T04:46:23.433Z,13.28
2023-05-16T04:48:53.184Z,13.49
2023-05-16T04:51:21.829Z,13.48
2023-05-16T04:53:49.757Z,13.62
2023-05-16T04:56:17.796Z,13.66
2023-05-16T04:58:45.749Z,13.72
2023-05-16T05:01:13.765Z,13.75
2023-05-16T05:03:41.680Z,13.49
2023-05-16T05:06:10.966Z,13.49
2023-05-16T05:08:38.867Z,13.80
2023-05-16T05:11:06.861Z,13.94
2023-05-16T05:13:34.792Z,13.99
2023-05-16T05:16:04.810Z,14.11
2023-05-16T05:18:32.988Z,14.14
2023-05-16T05:21:01.121Z,14.15
2023-05-16T05:23:30.412Z,14.23
2023-05-16T05:25:58.386Z,14.10
2023-05-16T05:28:26.265Z,13.88
2023-05-16T05:30:54.208Z,14.06
2023-05-16T05:33:28.040Z,14.22
2023-05-16T05:35:55.929Z,14.18
2023-05-16T05:38:24.165Z,14.13
2023-05-16T05:40:53.701Z,14.37
2023-05-16T05:43:21.647Z,14.26
2023-05-16T05:45:49.672Z,13.87
2023-05-16T05:48:17.701Z,13.71
2023-05-16T05:50:45.757Z,14.00
2023-05-16T05:53:13.882Z,13.87
2023-05-16T05:55:42.322Z,14.12
2023-05-16T05:58:11.683Z,14.20
2023-05-16T06:00:39.597Z,14.23
2023-05-16T06:03:07.652Z,14.08
2023-05-16T06:05:35.578Z,14.04
2023-05-16T06:08:03.525Z,13.94
2023-05-16T06:10:31.496Z,14.17
2023-05-16T06:12:59.379Z,14.24
2023-05-16T06:15:28.836Z,14.21
2023-05-16T06:17:56.898Z,14.33
2023-05-16T06:20:25.078Z,13.95
2023-05-16T06:22:53.102Z,14.06
2023-05-16T06:25:21.371Z,14.23
2023-05-16T06:27:49.249Z,14.12
2023-05-16T06:30:17.232Z,13.68
2023-05-16T06:32:46.571Z,13.66
2023-05-16T06:35:14.581Z,13.62
2023-05-16T06:37:43.059Z,13.97
2023-05-16T06:40:11.957Z,14.15
2023-05-16T06:42:39.981Z,13.92
2023-05-16T06:45:09.359Z,13.74
2023-05-16T06:47:37.595Z,13.77
2023-05-16T06:50:08.875Z,14.06
2023-05-16T06:52:36.836Z,14.19
2023-05-16T06:55:05.103Z,14.32
2023-05-16T06:57:33.206Z,14.41
2023-05-16T07:00:01.188Z,14.36
2023-05-16T07:02:29.230Z,13.83
2023-05-16T07:04:57.234Z,14.09
2023-05-16T07:07:26.692Z,14.15
2023-05-16T07:09:54.618Z,14.11
2023-05-16T07:12:22.537Z,14.24
2023-05-16T07:14:50.495Z,14.36
2023-05-16T07:17:18.422Z,14.49
2023-05-16T07:19:46.517Z,14.37
2023-05-16T07:22:14.387Z,14.57
2023-05-16T07:24:44.048Z,14.36
2023-05-16T07:27:12.024Z,14.39
2023-05-16T07:29:40.273Z,14.66
2023-05-16T07:32:09.161Z,14.44
2023-05-16T07:34:37.128Z,14.45
2023-05-16T07:37:05.233Z,14.62
2023-05-16T07:39:33.201Z,14.61
2023-05-16T07:42:02.520Z,14.69
2023-05-16T07:44:31.386Z,14.83
2023-05-16T07:46:59.491Z,14.67
2023-05-16T07:49:27.731Z,14.71
2023-05-16T07:51:55.622Z,14.53
2023-05-16T07:54:23.599Z,14.43
2023-05-16T07:56:51.608Z,14.46
2023-05-16T07:59:20.992Z,14.63
2023-05-16T08:01:49.237Z,14.54
2023-05-16T08:04:17.170Z,14.63
2023-05-16T08:06:45.481Z,14.85
2023-05-16T08:09:13.545Z,14.63
2023-05-16T08:11:41.602Z,14.65
2023-05-16T08:14:09.915Z,14.65
2023-05-16T08:16:39.271Z,14.78
2023-05-16T08:19:07.777Z,14.94
2023-05-16T08:21:36.288Z,15.05
2023-05-16T08:24:05.667Z,15.12
2023-05-16T08:26:33.997Z,14.91
2023-05-16T08:29:01.967Z,14.99
2023-05-16T08:31:30.207Z,14.97
2023-05-16T08:33:59.518Z,15.07
2023-05-16T08:36:27.516Z,15.40
2023-05-16T08:38:56.194Z,15.28
2023-05-16T08:41:24.269Z,15.31
2023-05-16T08:43:52.355Z,15.40
2023-05-16T08:46:24.012Z,15.45
2023-05-16T08:48:54.751Z,15.71
2023-05-16T08:51:26.912Z,15.87
2023-05-16T08:53:58.777Z,15.65
2023-05-16T08:56:27.495Z,15.55
2023-05-16T08:58:58.000Z,15.64
2023-05-16T09:01:26.096Z,15.64
2023-05-16T09:03:54.825Z,15.84
2023-05-16T09:06:24.905Z,16.03
2023-05-16T09:08:53.163Z,15.89
2023-05-16T09:11:21.749Z,15.73
2023-05-16T09:13:50.433Z,15.83
2023-05-16T09:16:20.419Z,16.01
2023-05-16T09:18:57.179Z,16.07
2023-05-16T09:21:31.955Z,16.34
2023-05-16T09:24:04.959Z,16.65
2023-05-16T09:26:34.064Z,16.42
2023-05-16T09:29:02.370Z,16.19
2023-05-16T09:31:36.897Z,16.11
2023-05-16T09:34:05.896Z,16.03
2023-05-16T09:36:35.320Z,15.56
2023-05-16T09:39:03.332Z,16.06
2023-05-16T09:41:35.222Z,16.21
2023-05-16T09:44:05.640Z,16.09
2023-05-16T09:46:36.056Z,16.00
2023-05-16T09:49:04.348Z,16.12
2023-05-16T09:51:33.600Z,16.31
2023-05-16T09:54:02.960Z,16.15
2023-05-16T09:56:30.910Z,16.14
2023-05-16T09:59:01.860Z,16.00
2023-05-16T10:01:29.920Z,15.96
2023-05-16T10:03:58.046Z,16.38
2023-05-16T10:06:26.945Z,16.55
2023-05-16T10:08:54.993Z,16.77
2023-05-16T10:11:24.449Z,16.95
2023-05-16T10:13:53.958Z,17.15
2023-05-16T10:16:24.381Z,17.29
2023-05-16T10:18:53.217Z,17.10
2023-05-16T10:21:23.658Z,17.07
2023-05-16T10:23:53.636Z,17.32
2023-05-16T10:26:22.859Z,17.40
2023-05-16T10:28:52.930Z,17.41
2023-05-16T10:31:22.042Z,17.37
2023-05-16T10:33:50.654Z,16.96
2023-05-16T10:36:19.159Z,17.24
2023-05-16T10:38:48.318Z,17.48
2023-05-16T10:41:16.742Z,17.52
2023-05-16T10:43:46.844Z,17.50
2023-05-16T10:46:16.241Z,17.42
2023-05-16T10:48:44.288Z,17.34
2023-05-16T10:51:36.569Z,17.25
2023-05-16T10:54:10.751Z,17.64
2023-05-16T10:56:39.031Z,17.90
2023-05-16T10:59:27.531Z,18.01
2023-05-16T11:01:57.721Z,18.14
2023-05-16T11:04:45.842Z,17.92
2023-05-16T11:07:13.894Z,17.58
2023-05-16T11:09:45.688Z,17.77
2023-05-16T11:12:14.464Z,17.61
2023-05-16T11:14:43.720Z,17.65
2023-05-16T11:17:14.721Z,17.95
2023-05-16T11:19:45.101Z,17.78
2023-05-16T11:22:24.717Z,18.02
2023-05-16T11:24:58.783Z,18.06
2023-05-16T11:27:29.018Z,18.12
2023-05-16T11:30:03.611Z,17.98
2023-05-16T11:32:36.035Z,18.16
2023-05-16T11:35:05.159Z,18.01
2023-05-16T11:37:33.109Z,18.10
2023-05-16T11:40:02.296Z,18.14
2023-05-16T11:42:34.066Z,18.30
2023-05-16T11:45:09.473Z,18.37
2023-05-16T11:47:40.199Z,18.45
2023-05-16T11:50:10.059Z,18.51
2023-05-16T11:52:38.822Z,18.65
2023-05-16T11:55:08.084Z,18.78
2023-05-16T11:57:36.363Z,19.04
2023-05-16T12:00:08.138Z,19.21
2023-05-16T12:02:36.257Z,18.95
2023-05-16T12:05:10.406Z,19.17
2023-05-16T12:07:38.796Z,19.38
2023-05-16T12:10:08.965Z,18.81
2023-05-16T12:12:37.457Z,18.50
2023-05-16T12:15:07.148Z,18.71
2023-05-16T12:17:35.598Z,18.85
2023-05-16T12:20:05.788Z,18.95
2023-05-16T12:22:35.317Z,19.00
2023-05-16T12:25:25.257Z,19.08
2023-05-16T12:27:55.278Z,18.72
2023-05-16T12:30:27.543Z,18.85
2023-05-16T12:32:58.951Z,18.99
2023-05-16T12:35:27.145Z,19.12
2023-05-16T12:37:56.694Z,19.24
2023-05-16T12:40:24.989Z,19.16
2023-05-16T12:42:53.210Z,19.35
2023-05-16T12:45:21.294Z,19.43
2023-05-16T12:47:49.335Z,19.47
2023-05-16T12:50:18.548Z,19.63
2023-05-16T12:52:51.618Z,19.78
2023-05-16T12:55:22.922Z,19.66
2023-05-16T12:57:51.918Z,19.94
2023-05-16T13:00:21.741Z,19.87
2023-05-16T13:02:50.407Z,19.35
2023-05-16T13:05:20.667Z,19.07
2023-05-16T13:07:48.792Z,19.39
2023-05-16T13:10:16.737Z,19.39
2023-05-16T13:12:46.734Z,19.14
2023-05-16T13:15:15.163Z,19.18
2023-05-16T13:17:45.045Z,19.29
2023-05-16T13:20:15.272Z,19.53
2023-05-16T13:22:44.410Z,19.73
2023-05-16T13:25:13.192Z,19.68
2023-05-16T13:27:41.324Z,19.72
2023-05-16T13:30:11.780Z,19.52
2023-05-16T13:32:39.958Z,19.43
2023-05-16T13:35:08.482Z,19.86
2023-05-16T13:37:36.845Z,19.75
2023-05-16T13:40:05.577Z,19.87
2023-05-16T13:42:33.596Z,19.64
2023-05-16T13:45:01.575Z,19.75
2023-05-16T13:47:31.140Z,20.01
2023-05-16T13:49:59.277Z,20.25
2023-05-16T13:52:27.247Z,20.37
2023-05-16T13:54:55.188Z,20.08
2023-05-16T13:57:23.389Z,19.98
2023-05-16T14:02:22.348Z,19.64
2023-05-16T14:04:51.693Z,19.62
2023-05-16T14:07:19.874Z,19.74
2023-05-16T14:09:50.706Z,19.85
2023-05-16T14:12:20.401Z,19.76
2023-05-16T14:14:48.386Z,19.74
2023-05-16T14:17:16.518Z,19.47
2023-05-16T14:19:44.462Z,19.50
2023-05-16T14:22:13.849Z,19.48
2023-05-16T14:24:41.855Z,19.30
2023-05-16T14:27:12.502Z,19.53
2023-05-16T14:29:40.540Z,19.30
2023-05-16T14:32:10.610Z,18.99
2023-05-16T14:34:38.602Z,19.05
2023-05-16T14:37:06.863Z,19.11
2023-05-16T14:39:36.176Z,19.23
2023-05-16T14:42:05.608Z,19.36
2023-05-16T14:44:35.751Z,19.52
2023-05-16T14:47:04.373Z,19.65
2023-05-16T14:49:32.541Z,19.60
2023-05-16T14:52:00.633Z,19.66
2023-05-16T14:54:28.632Z,19.53
2023-05-16T14:57:00.268Z,19.16
2023-05-16T14:59:28.615Z,19.10
2023-05-16T15:01:56.700Z,18.83
2023-05-16T15:04:24.646Z,18.85
2023-05-16T15:06:52.684Z,18.91
2023-05-16T15:09:20.668Z,18.56
2023-05-16T15:11:48.750Z,18.44
2023-05-16T15:14:18.161Z,18.51
2023-05-16T15:16:47.387Z,18.57
2023-05-16T15:19:15.511Z,18.43
2023-05-16T15:21:43.446Z,18.50
2023-05-16T15:24:12.331Z,18.49
2023-05-16T15:26:40.649Z,18.58
2023-05-16T15:29:08.626Z,18.57
2023-05-16T15:31:38.061Z,18.43
2023-05-16T15:34:08.573Z,18.53
2023-05-16T15:36:36.599Z,18.53
2023-05-16T15:39:05.613Z,18.46
2023-05-16T15:41:56.855Z,18.18
2023-05-16T15:44:21.618Z,17.45
2023-05-16T15:46:51.392Z,17.66
2023-05-16T15:49:20.943Z,17.73
2023-05-16T15:51:48.905Z,17.77
2023-05-16T15:54:18.466Z,17.57
2023-05-16T15:56:46.626Z,17.60
2023-05-16T15:59:14.562Z,17.44
2023-05-16T16:01:42.706Z,17.60
2023-05-16T16:04:12.062Z,17.61
2023-05-16T16:06:40.136Z,17.71
2023-05-16T16:09:08.306Z,17.78
2023-05-16T16:11:36.458Z,17.89
2023-05-16T16:14:04.450Z,17.92
2023-05-16T16:16:32.587Z,17.89
2023-05-16T16:19:00.586Z,17.87
2023-05-16T16:21:29.929Z,17.91
2023-05-16T16:23:57.928Z,17.81
2023-05-16T16:26:26.568Z,17.85
2023-05-16T16:28:54.512Z,17.72
2023-05-16T16:31:22.504Z,17.69
2023-05-16T16:33:50.447Z,17.50
2023-05-16T16:36:18.458Z,17.60
2023-05-16T16:38:47.783Z,17.63
2023-05-16T16:41:16.536Z,17.59
2023-05-16T16:43:44.582Z,17.59
2023-05-16T16:46:12.540Z,17.53
2023-05-16T16:48:40.626Z,17.55
2023-05-16T16:51:08.645Z,17.53
2023-05-16T16:53:37.856Z,17.54
2023-05-16T16:56:08.015Z,17.48
2023-05-16T16:58:36.069Z,17.49
2023-05-16T17:01:04.205Z,17.49
2023-05-16T17:03:32.289Z,17.46
2023-05-16T17:06:00.257Z,17.45
2023-05-16T17:08:28.284Z,17.37
2023-05-16T17:10:56.384Z,17.33
2023-05-16T17:13:33.460Z,17.32
2023-05-16T17:16:01.511Z,17.29
2023-05-16T17:18:29.951Z,17.23
2023-05-16T17:20:58.135Z,17.18
2023-05-16T17:23:26.182Z,17.19
2023-05-16T17:25:54.125Z,17.25
2023-05-16T17:28:22.505Z,17.25
2023-05-16T17:30:51.818Z,17.20
2023-05-16T17:33:20.064Z,17.20
2023-05-16T17:35:48.262Z,17.20
2023-05-16T17:38:16.214Z,17.13
2023-05-16T17:40:44.248Z,17.12
2023-05-16T17:43:12.185Z,17.19
2023-05-16T17:45:40.558Z,17.14
2023-05-16T17:48:10.164Z,17.15
2023-05-16T17:50:38.209Z,17.14
2023-05-16T17:53:07.855Z,17.11
2023-05-16T17:55:38.282Z,16.99
2023-05-16T17:58:06.885Z,17.01
2023-05-16T18:00:34.893Z,16.99
2023-05-16T18:03:03.143Z,17.08
2023-05-16T18:05:32.705Z,17.01
2023-05-16T18:08:00.901Z,17.07
2023-05-16T18:10:33.948Z,17.01
2023-05-16T18:13:12.382Z,17.05
2023-05-16T18:15:40.671Z,17.09
2023-05-16T18:18:08.834Z,17.01
2023-05-16T18:20:38.895Z,16.96
2023-05-16T18:23:08.255Z,16.95
2023-05-16T18:25:36.335Z,16.99
2023-05-16T18:28:06.368Z,17.00
2023-05-16T18:30:35.213Z,16.89
2023-05-16T18:33:06.558Z,16.91
2023-05-16T18:35:34.683Z,16.92
2023-05-16T18:38:04.210Z,16.91
2023-05-16T18:40:32.395Z,16.92
2023-05-16T18:43:00.472Z,16.96
2023-05-16T18:45:29.748Z,16.87
2023-05-16T18:47:58.067Z,16.82
2023-05-16T18:50:26.282Z,16.82
2023-05-16T18:52:57.542Z,16.86
2023-05-16T18:55:27.449Z,16.86
2023-05-16T18:57:55.531Z,16.87
2023-05-16T19:00:23.698Z,16.87
2023-05-16T19:02:51.877Z,16.83
2023-05-16T19:05:20.048Z,16.75
2023-05-16T19:07:48.120Z,16.75
2023-05-16T19:10:16.165Z,16.74
2023-05-16T19:12:48.943Z,16.73
2023-05-16T19:15:16.956Z,16.55
2023-05-16T19:17:44.931Z,16.63
2023-05-16T19:20:13.013Z,16.75
2023-05-16T19:22:41.099Z,16.81
2023-05-16T19:25:10.008Z,16.77
2023-05-16T19:27:38.077Z,16.75
2023-05-16T19:30:08.891Z,16.81
2023-05-16T19:32:36.876Z,16.84
2023-05-16T19:35:05.486Z,16.79
2023-05-16T19:37:33.571Z,16.82
2023-05-16T19:40:01.553Z,16.71
2023-05-16T19:42:29.584Z,16.64
2023-05-16T19:44:58.279Z,16.59
2023-05-16T19:47:28.280Z,16.66
2023-05-16T19:49:56.397Z,16.66
2023-05-16T19:52:26.154Z,16.63
2023-05-16T19:54:54.302Z,16.58
2023-05-16T19:57:22.300Z,16.50
2023-05-16T19:59:50.520Z,16.62
2023-05-16T20:02:20.191Z,16.60
2023-05-16T20:04:51.760Z,16.66
2023-05-16T20:07:19.861Z,16.60
2023-05-16T20:09:47.864Z,16.68
2023-05-16T20:12:15.827Z,16.62
2023-05-16T20:14:43.785Z,16.33
2023-05-16T20:17:11.758Z,16.34
2023-05-16T20:19:43.899Z,16.33
2023-05-16T20:22:13.557Z,16.29
2023-05-16T20:24:41.461Z,16.36
2023-05-16T20:27:09.465Z,16.32
2023-05-16T20:29:37.610Z,16.26
2023-05-16T20:32:06.053Z,16.13
2023-05-16T20:34:34.054Z,15.95
2023-05-16T20:37:01.973Z,16.00
2023-05-16T20:39:31.781Z,16.15
2023-05-16T20:41:59.719Z,16.22
2023-05-16T20:44:28.844Z,16.25
2023-05-16T20:46:56.783Z,16.25
2023-05-16T20:49:24.728Z,16.35
2023-05-16T20:51:52.799Z,16.39
2023-05-16T20:54:20.787Z,16.31
2023-05-16T20:56:50.091Z,16.12
2023-05-16T20:59:18.014Z,16.33
2023-05-16T21:01:46.331Z,16.42
2023-05-16T21:04:14.620Z,16.38
2023-05-16T21:06:42.602Z,16.09
2023-05-16T21:09:10.560Z,16.30
2023-05-16T21:11:38.481Z,16.16
2023-05-16T21:14:07.830Z,16.16
2023-05-16T21:16:35.815Z,16.03
2023-05-16T21:19:04.370Z,16.15
2023-05-16T21:21:32.625Z,16.01
2023-05-16T21:24:00.658Z,15.94
2023-05-16T21:26:28.580Z,16.03
2023-05-16T21:28:56.579Z,15.97
2023-05-16T21:31:26.293Z,16.00
2023-05-16T21:33:54.497Z,15.46
2023-05-16T21:36:22.712Z,15.38
2023-05-16T21:38:50.808Z,15.55
2023-05-16T21:41:19.166Z,15.40
2023-05-16T21:43:47.129Z,15.40
2023-05-16T21:46:15.267Z,15.42
2023-05-16T21:48:44.736Z,15.55
2023-05-16T21:51:12.855Z,15.55
2023-05-16T21:53:40.801Z,15.23
2023-05-16T21:56:08.880Z,15.14
2023-05-16T21:58:36.972Z,15.22
2023-05-16T22:01:04.993Z,15.10
2023-05-16T22:03:33.088Z,14.90
2023-05-16T22:06:02.445Z,14.91
2023-05-16T22:08:30.587Z,14.98
2023-05-16T22:10:58.543Z,14.87
2023-05-16T22:13:26.516Z,14.97
2023-05-16T22:16:03.985Z,14.87
2023-05-16T22:18:33.129Z,14.89
2023-05-16T22:21:02.987Z,14.80
2023-05-16T22:23:31.064Z,14.70
2023-05-16T22:25:59.030Z,14.65
2023-05-16T22:28:27.296Z,14.50
2023-05-16T22:30:55.251Z,14.59
2023-05-16T22:33:24.227Z,14.60
2023-05-16T22:35:52.549Z,14.64
2023-05-16T22:38:22.457Z,14.34
2023-05-16T22:40:50.513Z,14.38
2023-05-16T22:43:18.459Z,14.23
2023-05-16T22:45:46.470Z,14.19
2023-05-16T22:48:14.581Z,14.18
2023-05-16T22:50:42.680Z,14.02
2023-05-16T22:53:10.599Z,13.85
2023-05-16T22:55:39.939Z,13.90
2023-05-16T22:58:07.901Z,13.77
2023-05-16T23:00:35.905Z,13.68
2023-05-16T23:03:04.458Z,13.68
2023-05-16T23:05:32.530Z,13.50
2023-05-16T23:08:00.469Z,13.68
2023-05-16T23:10:28.939Z,13.68
2023-05-16T23:12:58.330Z,13.90
2023-05-16T23:15:26.467Z,13.69
2023-05-16T23:17:54.677Z,13.69
2023-05-16T23:20:22.832Z,13.55
2023-05-16T23:22:50.791Z,13.52
2023-05-16T23:25:18.722Z,13.49
2023-05-16T23:27:46.649Z,13.51
2023-05-16T23:30:16.732Z,13.63
2023-05-16T23:32:44.702Z,13.74
2023-05-16T23:35:12.681Z,13.70
2023-05-16T23:37:40.876Z,13.58
2023-05-16T23:40:10.441Z,13.57
2023-05-16T23:42:40.823Z,13.44
2023-05-16T23:45:10.396Z,13.40
2023-05-16T23:47:39.878Z,13.31
2023-05-16T23:50:08.798Z,13.15
2023-05-16T23:52:36.853Z,13.09
2023-05-16T23:55:05.304Z,12.96
2023-05-16T23:57:33.234Z,13.03
